Florence, Indiana
Current Conditions -  °F | °C
As of 6:52 AM on Thursday 29 Jan 2015 (Local Time) from KCVG Reporting Station
Overcast Overcast  
Wind Chill: 29°   Ceiling: 6500
Heat Index: 38°   Visibility: 10mi
Dew Point: 29°   Wind: 17mph
Humidity: 70%   Direction: 180°S
Pressure: 29.88"   Gusts: NA
Location:  38.78°N, 84.92°W
Report Text: KCVG 291152Z 18015KT 10SM OVC065 03/M02 A2988 RMK AO2 RAE30 SLP123 P0002 60009 70009 T00331017 10033 20000 56039
Loading
Personal Weather Stations






























Interactive Weather Map New forecast layout! Learn more

10-Day Weather Forecast

Advertisements
Track Severe Weather on mobile